Time;durP1;ratioP1;P1;durP2;ratioP2;P2;SDS_P1;SDS_P2;PMS_P1;PMS_P2;Temp;Humidity;BMP_temperature;BMP_pressure;BME280_temperature;BME280_humidity;BME280_pressure;Samples;Min_cycle;Max_cycle;Signal;HPM_P1;HPM_P2
2023/09/09 00:01:38;;;;;;;13.63;9.07;;;;;;;15.51;100.00;100545.78;4980847;28;20208;-74
2023/09/09 00:04:04;;;;;;;11.73;9.33;;;;;;;15.56;100.00;100543.97;4981429;28;20252;-74
2023/09/09 00:06:31;;;;;;;12.37;8.80;;;;;;;15.60;100.00;100537.75;4984876;28;20672;-74
2023/09/09 00:09:00;;;;;;;12.40;8.90;;;;;;;15.50;100.00;100538.69;4983554;28;20283;-74
2023/09/09 00:11:26;;;;;;;12.37;9.00;;;;;;;15.42;100.00;100539.59;4984401;28;20283;-74
2023/09/09 00:13:53;;;;;;;11.20;8.77;;;;;;;15.42;100.00;100536.94;4987053;28;20691;-74
2023/09/09 00:16:19;;;;;;;11.47;8.67;;;;;;;15.38;100.00;100538.72;5002731;28;20668;-74
2023/09/09 00:18:46;;;;;;;11.83;8.80;;;;;;;15.31;100.00;100532.53;4992913;28;20217;-74
2023/09/09 00:21:14;;;;;;;11.20;8.57;;;;;;;15.31;100.00;100527.19;4994886;28;20197;-74
2023/09/09 00:23:40;;;;;;;11.70;8.63;;;;;;;15.32;100.00;100538.75;4981185;28;20224;-73
2023/09/09 00:26:07;;;;;;;11.83;9.27;;;;;;;15.31;100.00;100532.53;4988754;28;20205;-74
2023/09/09 00:28:33;;;;;;;12.07;9.50;;;;;;;15.29;100.00;100530.78;4986822;28;20197;-74
2023/09/09 00:30:59;;;;;;;13.10;8.90;;;;;;;15.27;100.00;100541.44;4997856;28;20232;-73
2023/09/09 00:33:26;;;;;;;12.27;9.00;;;;;;;15.17;100.00;100530.78;4983271;28;20267;-73
2023/09/09 00:35:52;;;;;;;11.90;8.83;;;;;;;15.08;100.00;100522.81;4989755;28;20699;-74
2023/09/09 00:38:19;;;;;;;12.17;8.30;;;;;;;15.02;100.00;100521.94;5005204;28;20212;-74
2023/09/09 00:41:09;;;;;;;12.47;9.23;;;;;;;15.09;100.00;100528.16;4988375;28;20728;-73
2023/09/09 00:43:38;;;;;;;10.23;8.33;;;;;;;15.00;100.00;100523.72;4983484;28;20358;-73
2023/09/09 00:46:07;;;;;;;12.60;9.30;;;;;;;14.96;100.00;100523.75;5003495;28;20231;-74
2023/09/09 00:48:34;;;;;;;13.97;9.20;;;;;;;14.93;100.00;100521.97;5002665;28;20292;-73
2023/09/09 00:51:01;;;;;;;12.37;8.87;;;;;;;14.90;100.00;100522.00;4988824;28;20212;-74
2023/09/09 00:53:27;;;;;;;15.67;10.80;;;;;;;15.00;100.00;100525.50;4989680;28;20225;-73
2023/09/09 00:55:54;;;;;;;13.67;11.47;;;;;;;15.04;100.00;100521.94;4989821;28;20699;-74
2023/09/09 00:58:23;;;;;;;15.30;10.37;;;;;;;15.12;100.00;100522.81;4989645;28;20828;-73
2023/09/09 01:00:49;;;;;;;16.20;10.73;;;;;;;15.19;100.00;100529.00;5001011;28;20205;-73
2023/09/09 01:03:16;;;;;;;13.67;9.93;;;;;;;15.17;100.00;100534.34;4988978;28;20217;-73
2023/09/09 01:05:42;;;;;;;15.37;11.37;;;;;;;15.19;100.00;100540.56;4988606;28;20205;-73
2023/09/09 01:08:08;;;;;;;17.07;11.10;;;;;;;15.13;100.00;100527.25;4986595;28;20192;-73
2023/09/09 01:10:35;;;;;;;14.60;11.27;;;;;;;15.05;100.00;100534.38;4988566;28;20217;-74
2023/09/09 01:13:02;;;;;;;16.60;11.60;;;;;;;15.09;100.00;100538.81;4986593;28;20977;-74
2023/09/09 01:15:29;;;;;;;16.33;11.63;;;;;;;15.08;100.00;100529.03;4984670;28;20239;-73
2023/09/09 01:17:55;;;;;;;17.70;11.27;;;;;;;15.09;100.00;100533.47;4987675;28;20228;-73
2023/09/09 01:20:25;;;;;;;14.60;10.87;;;;;;;15.08;100.00;100530.81;4985719;28;20695;-73
2023/09/09 01:22:53;;;;;;;13.47;10.20;;;;;;;15.07;100.00;100535.28;4991507;28;20220;-72
2023/09/09 01:25:19;;;;;;;15.70;10.33;;;;;;;15.02;100.00;100537.06;4992003;28;20205;-72
2023/09/09 01:27:46;;;;;;;12.53;9.60;;;;;;;15.01;100.00;100536.19;4976293;28;20202;-73
2023/09/09 01:30:12;;;;;;;12.67;9.63;;;;;;;14.99;100.00;100537.97;4988900;28;20208;-73
2023/09/09 01:32:39;;;;;;;13.40;10.07;;;;;;;14.99;100.00;100527.28;4988927;28;20227;-73
2023/09/09 01:35:06;;;;;;;15.57;10.23;;;;;;;14.92;100.00;100532.66;4983945;28;20299;-71
2023/09/09 01:37:33;;;;;;;14.17;9.60;;;;;;;14.87;100.00;100526.44;4990553;28;20220;-72
2023/09/09 01:40:05;;;;;;;14.83;10.23;;;;;;;14.85;100.00;100531.78;4987019;28;20216;-73
2023/09/09 01:42:31;;;;;;;13.10;10.53;;;;;;;14.86;100.00;100533.56;4989561;28;20225;-72
2023/09/09 01:44:58;;;;;;;13.73;10.37;;;;;;;14.89;100.00;100527.31;4990927;28;20201;-72
2023/09/09 01:47:24;;;;;;;12.83;10.23;;;;;;;14.93;100.00;100529.09;4991742;28;20235;-72
2023/09/09 01:49:50;;;;;;;14.93;10.30;;;;;;;14.89;100.00;100533.53;4985494;28;20705;-73
2023/09/09 01:52:17;;;;;;;14.97;10.27;;;;;;;14.82;100.00;100530.91;4999182;28;20232;-72
2023/09/09 01:54:43;;;;;;;17.13;10.00;;;;;;;14.87;100.00;100526.44;4987820;28;20201;-71
2023/09/09 01:57:10;;;;;;;13.37;10.33;;;;;;;14.82;100.00;100536.22;4987156;28;20576;-72
2023/09/09 01:59:36;;;;;;;14.00;10.40;;;;;;;14.76;100.00;100534.44;4982309;28;20203;-72
2023/09/09 02:02:03;;;;;;;14.73;10.70;;;;;;;14.68;100.00;100531.78;4984920;28;20205;-72
2023/09/09 02:04:29;;;;;;;14.23;9.77;;;;;;;14.64;100.00;100537.13;4987793;28;20563;-72
2023/09/09 02:06:56;;;;;;;14.40;10.50;;;;;;;14.66;100.00;100541.56;4988385;28;20205;-72
2023/09/09 02:09:22;;;;;;;15.80;10.30;;;;;;;14.65;100.00;100537.13;4986776;28;20280;-72
2023/09/09 02:11:48;;;;;;;13.67;9.83;;;;;;;14.59;100.00;100542.47;4985539;28;20218;-72
2023/09/09 02:14:15;;;;;;;12.93;10.13;;;;;;;14.64;100.00;100539.78;4988779;28;20734;-72
2023/09/09 02:16:41;;;;;;;13.80;10.20;;;;;;;14.66;100.00;100533.56;4985331;28;20215;-72
2023/09/09 02:19:08;;;;;;;12.57;9.67;;;;;;;14.67;100.00;100537.13;4986298;28;20689;-72
2023/09/09 02:21:34;;;;;;;13.63;9.93;;;;;;;14.51;100.00;100533.59;4987705;28;20205;-72
2023/09/09 02:24:01;;;;;;;12.37;9.73;;;;;;;14.47;100.00;100544.25;4986349;23;20755;-74
2023/09/09 02:26:27;;;;;;;17.30;10.33;;;;;;;14.39;100.00;100537.09;4969942;28;20210;-75
2023/09/09 02:28:54;;;;;;;14.07;9.93;;;;;;;14.37;100.00;100530.88;4969685;28;20508;-72
2023/09/09 02:31:20;;;;;;;13.80;10.17;;;;;;;14.39;100.00;100533.53;4968137;28;20213;-74
2023/09/09 02:33:47;;;;;;;14.47;10.57;;;;;;;14.43;100.00;100534.47;4961852;28;20210;-74
2023/09/09 02:36:13;;;;;;;13.00;10.23;;;;;;;14.35;100.00;100532.66;4972898;28;20280;-73
2023/09/09 02:38:39;;;;;;;13.77;9.90;;;;;;;14.30;100.00;100546.84;4966141;28;20280;-73
2023/09/09 02:41:06;;;;;;;15.70;10.03;;;;;;;14.23;100.00;100537.97;4965012;28;20229;-72
2023/09/09 02:43:32;;;;;;;16.03;10.10;;;;;;;14.27;100.00;100541.53;4969629;28;20204;-72
2023/09/09 02:45:59;;;;;;;13.70;10.17;;;;;;;14.29;100.00;100545.97;4967743;28;20656;-73
2023/09/09 02:48:26;;;;;;;15.40;10.60;;;;;;;14.32;100.00;100543.28;4961531;28;20201;-74
2023/09/09 02:50:53;;;;;;;11.60;9.23;;;;;;;14.29;100.00;100529.97;4968312;28;20232;-74
2023/09/09 02:53:19;;;;;;;14.00;10.20;;;;;;;14.28;100.00;100544.19;4963495;28;20252;-74
2023/09/09 02:55:45;;;;;;;13.53;10.43;;;;;;;14.28;100.00;100546.84;4967189;28;20292;-76
2023/09/09 02:58:13;;;;;;;13.83;9.90;;;;;;;14.21;100.00;100547.75;4977229;28;20239;-76
2023/09/09 03:00:40;;;;;;;14.63;10.37;;;;;;;14.18;100.00;100545.06;4963426;28;20209;-75
2023/09/09 03:03:07;;;;;;;13.63;10.20;;;;;;;14.24;100.00;100546.84;4966824;28;20697;-76
2023/09/09 03:05:35;;;;;;;14.33;10.20;;;;;;;14.23;100.00;100547.75;4961945;28;20579;-76
2023/09/09 03:08:04;;;;;;;14.07;9.97;;;;;;;14.20;100.00;100550.41;4978605;28;20567;-75
2023/09/09 03:10:30;;;;;;;14.07;10.03;;;;;;;14.24;100.00;100539.75;4964807;28;20236;-75
2023/09/09 03:12:58;;;;;;;13.10;9.73;;;;;;;14.17;100.00;100539.75;4965970;28;20205;-76
2023/09/09 03:15:24;;;;;;;13.57;9.70;;;;;;;14.16;100.00;100545.97;4966476;28;20577;-76
2023/09/09 03:17:51;;;;;;;14.50;9.50;;;;;;;14.09;100.00;100556.59;4975497;28;20213;-76
2023/09/09 03:20:17;;;;;;;13.40;10.40;;;;;;;14.10;100.00;100552.16;4965144;28;20207;-76
2023/09/09 03:22:44;;;;;;;12.30;9.37;;;;;;;13.97;100.00;100550.34;4967121;28;20233;-75
2023/09/09 03:25:10;;;;;;;13.37;9.60;;;;;;;13.87;100.00;100549.44;4965559;28;20520;-77
2023/09/09 03:27:37;;;;;;;14.60;9.30;;;;;;;13.80;100.00;100552.97;4964829;28;20244;-77
2023/09/09 03:30:04;;;;;;;13.93;10.10;;;;;;;13.85;100.00;100547.66;4970109;28;20205;-76
2023/09/09 03:32:31;;;;;;;15.00;9.73;;;;;;;13.88;100.00;100545.91;4960793;28;20225;-76
2023/09/09 03:34:57;;;;;;;12.87;9.90;;;;;;;13.85;100.00;100545.91;4963563;28;20587;-76
2023/09/09 03:37:24;;;;;;;13.40;10.00;;;;;;;13.79;100.00;100544.09;4960959;28;20201;-76
2023/09/09 03:39:50;;;;;;;14.50;9.53;;;;;;;13.76;100.00;100541.44;4965804;28;20225;-74
2023/09/09 03:42:17;;;;;;;12.10;9.47;;;;;;;13.73;100.00;100546.75;4965058;28;20701;-73
2023/09/09 03:44:46;;;;;;;12.83;9.43;;;;;;;13.69;100.00;100544.97;4957956;28;20289;-74
2023/09/09 03:47:13;;;;;;;12.30;9.23;;;;;;;13.70;100.00;100549.41;4962093;28;20205;-74
2023/09/09 03:49:39;;;;;;;12.93;9.53;;;;;;;13.72;100.00;100544.97;4964330;28;20613;-76
2023/09/09 03:52:06;;;;;;;12.97;9.23;;;;;;;13.68;100.00;100544.97;4960753;28;20760;-76
2023/09/09 03:54:32;;;;;;;12.17;9.67;;;;;;;13.63;100.00;100549.41;4963756;28;20646;-75
2023/09/09 03:56:59;;;;;;;16.40;10.17;;;;;;;13.56;100.00;100547.56;4981252;28;20233;-73
2023/09/09 03:59:29;;;;;;;15.00;8.97;;;;;;;13.55;100.00;100548.44;4963781;28;20701;-75
2023/09/09 04:01:57;;;;;;;15.87;9.67;;;;;;;13.54;100.00;100541.34;4962713;28;20221;-73
2023/09/09 04:04:23;;;;;;;14.93;9.80;;;;;;;13.60;100.00;100544.91;4961468;28;20573;-73
2023/09/09 04:06:50;;;;;;;13.43;9.90;;;;;;;13.63;100.00;100550.28;4958190;28;20637;-73
2023/09/09 04:09:22;;;;;;;15.03;9.80;;;;;;;13.65;100.00;100553.84;4969212;28;20194;-74
2023/09/09 04:11:49;;;;;;;18.93;11.40;;;;;;;13.66;100.00;100552.94;4968509;28;20217;-74
2023/09/09 04:14:15;;;;;;;16.17;9.90;;;;;;;13.64;100.00;100557.38;4966507;28;20674;-74
2023/09/09 04:16:41;;;;;;;14.73;9.53;;;;;;;13.64;100.00;100554.72;4964954;28;20813;-74
2023/09/09 04:19:08;;;;;;;17.93;11.43;;;;;;;13.65;100.00;100550.28;4969301;28;20309;-75
2023/09/09 04:21:35;;;;;;;13.53;10.20;;;;;;;13.66;100.00;100552.06;4967381;28;20229;-74
2023/09/09 04:24:01;;;;;;;15.37;10.57;;;;;;;13.68;100.00;100553.84;4970115;28;20615;-74
2023/09/09 04:26:28;;;;;;;14.90;10.63;;;;;;;13.73;100.00;100551.19;4965733;28;20284;-74
2023/09/09 04:28:54;;;;;;;13.33;9.90;;;;;;;13.66;100.00;100552.94;4979647;28;20285;-74
2023/09/09 04:31:21;;;;;;;15.97;10.13;;;;;;;13.60;100.00;100555.56;4967052;28;20238;-74
2023/09/09 04:33:47;;;;;;;16.57;11.00;;;;;;;13.59;100.00;100553.78;4971803;28;20198;-74
2023/09/09 04:36:14;;;;;;;13.70;10.37;;;;;;;13.55;100.00;100559.09;4969740;28;20662;-74
2023/09/09 04:38:40;;;;;;;12.00;9.60;;;;;;;13.48;100.00;100569.72;4964332;28;20662;-73
2023/09/09 04:41:08;;;;;;;12.63;9.10;;;;;;;13.45;100.00;100566.16;4966432;28;20225;-73
2023/09/09 04:43:35;;;;;;;13.67;9.80;;;;;;;13.47;100.00;100562.63;4966746;28;20197;-73
2023/09/09 04:46:01;;;;;;;13.33;10.43;;;;;;;13.41;100.00;100557.28;4968145;28;20225;-74
2023/09/09 04:48:28;;;;;;;13.20;9.47;;;;;;;13.31;100.00;100557.22;4966227;28;21601;-74
2023/09/09 04:50:55;;;;;;;15.07;9.80;;;;;;;13.23;100.00;100559.84;4966040;28;20946;-76
2023/09/09 04:53:21;;;;;;;13.77;10.20;;;;;;;13.29;100.00;100556.34;4966145;28;20209;-75
2023/09/09 04:55:48;;;;;;;13.63;10.20;;;;;;;13.32;100.00;100557.22;4968023;28;20345;-74
2023/09/09 04:58:14;;;;;;;13.83;10.23;;;;;;;13.32;100.00;100567.88;4966769;28;20673;-76
2023/09/09 05:00:40;;;;;;;14.20;9.83;;;;;;;13.33;100.00;100561.69;4961952;28;20289;-75
2023/09/09 05:03:07;;;;;;;14.07;10.20;;;;;;;13.37;100.00;100567.91;4960562;28;20288;-73
2023/09/09 05:05:34;;;;;;;12.90;9.87;;;;;;;13.45;100.00;100566.16;4971719;28;20343;-72
2023/09/09 05:08:00;;;;;;;14.03;10.13;;;;;;;13.52;100.00;100565.28;4962611;28;20224;-74
2023/09/09 05:10:27;;;;;;;15.50;10.00;;;;;;;13.54;100.00;100560.88;4967943;28;20227;-73
2023/09/09 05:12:54;;;;;;;14.60;9.47;;;;;;;13.47;100.00;100559.06;4965460;28;20200;-74
2023/09/09 05:15:20;;;;;;;13.60;9.90;;;;;;;13.49;100.00;100565.28;4962818;28;20231;-74
2023/09/09 05:17:49;;;;;;;13.83;10.23;;;;;;;13.44;100.00;100567.03;4969713;28;20308;-74
2023/09/09 05:20:15;;;;;;;16.50;10.53;;;;;;;13.42;100.00;100576.78;4964983;28;20309;-75
2023/09/09 05:22:42;;;;;;;13.67;9.83;;;;;;;13.47;100.00;100572.38;4969305;28;20217;-73
2023/09/09 05:25:08;;;;;;;14.70;10.67;;;;;;;13.52;100.00;100575.94;4967067;28;20654;-74
2023/09/09 05:27:35;;;;;;;17.33;11.30;;;;;;;13.62;100.00;100572.44;4966459;28;20296;-74
2023/09/09 05:30:01;;;;;;;17.10;11.10;;;;;;;13.70;100.00;100578.69;4967363;28;20212;-74
2023/09/09 05:32:28;;;;;;;16.40;11.03;;;;;;;13.74;100.00;100580.47;4963058;28;20221;-73
2023/09/09 05:34:55;;;;;;;13.97;10.63;;;;;;;13.82;100.00;100583.16;4966785;28;20236;-73
2023/09/09 05:37:22;;;;;;;15.97;11.10;;;;;;;13.94;100.00;100582.28;4961406;28;20228;-74
2023/09/09 05:39:48;;;;;;;16.77;11.80;;;;;;;13.95;100.00;100584.06;4962459;28;20254;-74
2023/09/09 05:42:15;;;;;;;15.03;11.50;;;;;;;14.07;100.00;100585.00;4962971;28;20225;-74
2023/09/09 05:44:41;;;;;;;13.77;10.37;;;;;;;14.07;100.00;100585.00;4964680;28;20682;-79
2023/09/09 05:47:08;;;;;;;16.97;11.37;;;;;;;14.14;100.00;100585.91;4965577;28;20201;-78
2023/09/09 05:49:35;;;;;;;15.33;11.07;;;;;;;14.16;100.00;100591.25;4969635;28;20201;-77
2023/09/09 05:52:06;;;;;;;15.37;10.43;;;;;;;14.24;100.00;100592.13;4965932;28;20221;-76
2023/09/09 05:54:32;;;;;;;17.23;11.13;;;;;;;14.28;100.00;100594.81;4967563;28;20209;-77
2023/09/09 05:56:59;;;;;;;17.47;11.20;;;;;;;14.29;100.00;100595.69;4965528;28;20194;-77
2023/09/09 05:59:29;;;;;;;18.23;10.63;;;;;;;14.37;100.00;100592.16;4966128;28;20225;-76
2023/09/09 06:01:55;;;;;;;14.00;10.40;;;;;;;14.57;100.00;100599.31;4959840;28;20222;-76
2023/09/09 06:04:24;;;;;;;17.70;10.87;;;;;;;14.59;100.00;100592.22;4970850;28;20229;-77
2023/09/09 06:06:51;;;;;;;16.80;10.97;;;;;;;14.69;100.00;100605.53;4966495;28;20885;-77
2023/09/09 06:09:17;;;;;;;15.43;11.97;;;;;;;14.82;100.00;100606.44;4968497;28;20291;-77
2023/09/09 06:11:44;;;;;;;14.60;10.63;;;;;;;14.88;100.00;100603.78;4961897;28;20217;-76
2023/09/09 06:14:10;;;;;;;14.03;10.43;;;;;;;14.91;100.00;100608.22;4964389;28;20280;-77
2023/09/09 06:16:37;;;;;;;14.23;10.80;;;;;;;14.93;100.00;100609.09;4968489;28;20659;-78
2023/09/09 06:19:03;;;;;;;14.70;11.07;;;;;;;14.98;100.00;100613.53;4967551;28;20225;-79
2023/09/09 06:21:30;;;;;;;17.50;11.10;;;;;;;15.13;100.00;100609.06;4963597;28;20225;-81
2023/09/09 06:23:56;;;;;;;14.53;10.67;;;;;;;15.17;100.00;100610.81;4965724;28;20728;-79
2023/09/09 06:26:23;;;;;;;15.53;11.30;;;;;;;15.27;100.00;100608.16;4965095;28;20252;-79
2023/09/09 06:28:49;;;;;;;16.37;11.83;;;;;;;15.37;100.00;100622.34;4968075;28;20193;-77
2023/09/09 06:31:16;;;;;;;15.63;11.23;;;;;;;15.59;100.00;100613.41;4965444;28;20214;-78
2023/09/09 06:33:42;;;;;;;18.33;12.70;;;;;;;15.65;100.00;100623.22;4967088;28;20201;-79
2023/09/09 06:36:10;;;;;;;15.57;11.80;;;;;;;15.71;100.00;100619.63;4965001;28;20661;-80
2023/09/09 06:38:37;;;;;;;15.70;11.63;;;;;;;15.84;100.00;100634.69;4966071;28;20212;-79
2023/09/09 06:41:04;;;;;;;18.00;12.00;;;;;;;15.88;100.00;100626.66;4970937;28;20230;-81
2023/09/09 06:43:33;;;;;;;21.60;13.83;;;;;;;16.23;100.00;100636.28;4968955;28;20206;-81
2023/09/09 06:46:00;;;;;;;19.13;13.33;;;;;;;16.28;100.00;100635.34;4968706;28;20295;-80
2023/09/09 06:48:30;;;;;;;18.30;14.00;;;;;;;16.36;100.00;100629.06;4968996;28;20208;-80
2023/09/09 06:50:56;;;;;;;19.67;14.10;;;;;;;16.56;100.00;100633.41;4967636;28;20252;-80
2023/09/09 06:53:24;;;;;;;17.23;13.70;;;;;;;16.69;100.00;100633.34;4970769;28;20213;-80
2023/09/09 06:55:51;;;;;;;19.33;13.23;;;;;;;16.75;100.00;100634.16;4971056;28;20233;-80
2023/09/09 06:58:18;;;;;;;19.10;13.53;;;;;;;16.73;100.00;100633.28;4975003;28;20205;-81
2023/09/09 07:00:51;;;;;;;17.73;13.07;;;;;;;16.83;100.00;100628.78;4968423;28;20240;-81
2023/09/09 07:03:21;;;;;;;18.53;12.73;;;;;;;17.04;100.00;100635.72;4968701;28;20213;-80
2023/09/09 07:05:48;;;;;;;17.27;12.83;;;;;;;17.26;100.00;100634.63;4970584;28;20198;-80
2023/09/09 07:08:14;;;;;;;16.97;13.50;;;;;;;17.46;100.00;100634.41;4969462;28;20194;-81
2023/09/09 07:10:50;;;;;;;17.57;13.43;;;;;;;17.65;100.00;100633.31;4969667;28;20190;-80
2023/09/09 07:13:18;;;;;;;16.80;13.73;;;;;;;18.10;100.00;100636.38;4969108;28;20237;-80
2023/09/09 07:15:44;;;;;;;18.20;13.60;;;;;;;18.57;100.00;100627.63;4966376;28;20197;-81
2023/09/09 07:18:11;;;;;;;16.20;12.50;;;;;;;19.37;100.00;100629.88;4985936;28;20209;-81
2023/09/09 07:20:38;;;;;;;16.53;12.37;;;;;;;20.44;100.00;100639.34;4969939;28;20249;-79
2023/09/09 07:23:04;;;;;;;14.73;11.07;;;;;;;20.99;100.00;100626.34;4961342;28;20210;-79
2023/09/09 07:25:33;;;;;;;14.57;11.20;;;;;;;21.35;100.00;100632.63;4961280;28;20677;-79
2023/09/09 07:27:59;;;;;;;14.20;10.47;;;;;;;21.61;100.00;100643.56;4960323;28;20280;-79
2023/09/09 07:30:26;;;;;;;14.13;10.47;;;;;;;21.52;100.00;100638.41;4964585;28;20208;-79
2023/09/09 07:32:53;;;;;;;11.50;9.37;;;;;;;21.36;100.00;100631.69;4966293;28;20284;-79
2023/09/09 07:35:19;;;;;;;12.00;9.30;;;;;;;20.89;100.00;100637.38;4963862;28;20217;-78
2023/09/09 07:37:46;;;;;;;12.57;9.83;;;;;;;20.86;100.00;100636.56;4962454;28;20226;-79
2023/09/09 07:40:15;;;;;;;15.27;9.47;;;;;;;20.82;100.00;100626.78;4964001;28;20232;-78
2023/09/09 07:42:42;;;;;;;15.50;11.03;;;;;;;20.61;100.00;100639.81;4961866;28;20248;-78
2023/09/09 07:45:09;;;;;;;14.17;10.37;;;;;;;20.65;100.00;100646.91;4958811;28;20205;-79
2023/09/09 07:47:36;;;;;;;15.45;11.68;;;;;;;20.42;100.00;100640.31;4964574;28;20668;-79
2023/09/09 07:50:03;;;;;;;17.47;11.60;;;;;;;20.35;100.00;100634.13;4965547;28;20204;-76
2023/09/09 07:52:29;;;;;;;13.82;11.77;;;;;;;20.20;100.00;100643.44;4979039;28;20221;-76
2023/09/09 07:54:57;;;;;;;15.83;11.20;;;;;;;20.12;100.00;100636.47;4957118;28;20212;-76
2023/09/09 07:57:24;;;;;;;13.75;10.57;;;;;;;20.18;100.00;100639.88;4978243;28;20201;-76
2023/09/09 07:59:50;;;;;;;13.63;10.53;;;;;;;20.26;100.00;100629.84;4966740;28;20717;-76
2023/09/09 08:02:16;;;;;;;11.65;8.95;;;;;;;20.17;100.00;100646.19;4965144;28;20574;-76
2023/09/09 08:04:43;;;;;;;12.02;8.63;;;;;;;20.32;100.00;100639.56;4961506;28;20197;-76
2023/09/09 08:07:10;;;;;;;10.32;8.93;;;;;;;20.44;100.00;100642.03;4964878;28;20202;-76
2023/09/09 08:09:36;;;;;;;12.40;9.15;;;;;;;20.57;100.00;100635.44;4964013;28;20284;-76
2023/09/09 08:12:03;;;;;;;12.15;9.18;;;;;;;20.77;100.00;100643.03;4963195;28;20221;-76
2023/09/09 08:14:30;;;;;;;12.98;8.65;;;;;;;20.95;100.00;100637.19;4961616;28;20213;-75
2023/09/09 08:16:56;;;;;;;10.85;8.25;;;;;;;21.08;100.00;100647.66;4962981;28;20204;-75
2023/09/09 08:19:23;;;;;;;11.48;9.00;;;;;;;21.28;100.00;100637.28;4964683;28;20228;-76
2023/09/09 08:21:49;;;;;;;12.02;8.35;;;;;;;21.50;100.00;100642.97;4961443;28;20647;-75
2023/09/09 08:24:16;;;;;;;13.07;8.75;;;;;;;21.68;100.00;100650.56;4957421;28;20456;-77
2023/09/09 08:26:42;;;;;;;11.73;8.00;;;;;;;21.85;100.00;100642.00;4961743;28;20224;-76
2023/09/09 08:29:09;;;;;;;10.27;8.32;;;;;;;22.04;100.00;100637.00;4965248;28;20204;-77
2023/09/09 08:31:35;;;;;;;9.75;7.57;;;;;;;22.22;100.00;100646.34;4960762;28;20221;-77
2023/09/09 08:34:02;;;;;;;11.13;7.55;;;;;;;22.35;100.00;100639.63;4964552;28;20209;-77
2023/09/09 08:36:28;;;;;;;10.70;7.60;;;;;;;22.50;100.00;100636.47;4968622;28;20198;-76
2023/09/09 08:38:57;;;;;;;13.98;7.22;;;;;;;22.52;100.00;100635.47;4968644;28;20205;-79
2023/09/09 08:41:29;;;;;;;12.38;7.40;;;;;;;22.66;100.00;100639.53;4962639;28;20583;-78
2023/09/09 08:44:08;;;;;;;10.57;7.20;;;;;;;22.84;100.00;100646.22;4966687;28;20198;-78
2023/09/09 08:46:34;;;;;;;8.35;6.63;;;;;;;23.03;100.00;100642.84;4965400;28;20232;-79
2023/09/09 08:49:07;;;;;;;10.95;7.00;;;;;;;;;;4985276;28;20291;-78
2023/09/09 08:51:52;;;;;;;9.23;6.80;;;;;;;23.41;100.00;100644.22;4971640;28;20252;-77
2023/09/09 08:54:19;;;;;;;9.27;7.40;;;;;;;23.53;100.00;100642.00;4962654;28;20198;-76
2023/09/09 08:56:46;;;;;;;12.15;7.32;;;;;;;23.66;100.00;100643.38;4967802;28;20362;-77
2023/09/09 08:59:13;;;;;;;9.43;7.82;;;;;;;23.69;100.00;100645.97;4969011;28;20320;-77
2023/09/09 09:01:40;;;;;;;12.00;8.20;;;;;;;23.79;100.00;100647.41;4969230;28;20305;-78
2023/09/09 09:04:07;;;;;;;11.60;8.07;;;;;;;23.89;100.00;100643.41;4983966;28;20229;-77
2023/09/09 09:06:38;;;;;;;11.27;8.15;;;;;;;24.12;100.00;100650.66;4912916;28;20201;-79
2023/09/09 09:09:05;;;;;;;11.35;7.53;;;;;;;24.31;100.00;100650.84;4963467;28;20201;-79
2023/09/09 09:11:31;;;;;;;9.60;7.40;;;;;;;24.47;95.72;100645.72;4982992;28;20279;-79
2023/09/09 09:14:07;;;;;;;10.70;6.75;;;;;;;24.69;93.14;100649.31;4970076;28;20249;-78
2023/09/09 09:16:39;;;;;;;13.13;8.15;;;;;;;24.83;92.78;100646.97;4967498;28;20287;-78
2023/09/09 09:19:05;;;;;;;10.25;7.28;;;;;;;24.91;94.15;100647.53;4962665;28;20249;-79
2023/09/09 09:21:35;;;;;;;10.98;7.43;;;;;;;25.06;94.27;100640.59;4969949;28;20284;-78
2023/09/09 09:24:02;;;;;;;14.88;8.55;;;;;;;25.14;90.05;100629.41;4969301;28;20214;-78
2023/09/09 09:26:30;;;;;;;11.25;7.53;;;;;;;25.37;91.10;100628.44;4966876;28;20237;-78
2023/09/09 09:29:01;;;;;;;15.25;7.78;;;;;;;25.55;90.55;100630.31;4968738;28;20244;-79
2023/09/09 09:31:28;;;;;;;11.43;7.57;;;;;;;25.69;91.36;100633.34;4965988;28;20254;-81
2023/09/09 09:33:56;;;;;;;12.40;7.70;;;;;;;25.86;91.30;100625.31;4972634;28;20216;-78
2023/09/09 09:36:23;;;;;;;9.80;7.10;;;;;;;26.01;91.04;100626.44;4966830;28;20208;-78
2023/09/09 09:38:51;;;;;;;10.73;7.32;;;;;;;26.08;91.66;100629.75;4967558;28;20221;-79
2023/09/09 09:41:18;;;;;;;12.32;8.00;;;;;;;25.97;83.16;100629.34;4968720;28;20233;-78
2023/09/09 09:43:50;;;;;;;10.27;7.10;;;;;;;26.07;79.99;100622.56;4966185;28;20202;-78
2023/09/09 09:46:21;;;;;;;12.40;7.38;;;;;;;26.12;75.93;100623.22;4965015;28;20308;-78
2023/09/09 09:48:48;;;;;;;13.60;6.75;;;;;;;26.22;74.70;100616.41;4967444;28;20197;-78
2023/09/09 09:51:15;;;;;;;9.45;7.20;;;;;;;26.39;72.51;100613.78;4966876;28;20214;-78
2023/09/09 09:53:48;;;;;;;13.50;6.90;;;;;;;26.55;69.51;100616.66;4965775;28;20206;-78
2023/09/09 09:56:15;;;;;;;10.50;7.03;;;;;;;26.69;69.75;100624.13;4966491;28;20284;-78
2023/09/09 09:58:46;;;;;;;9.63;7.15;;;;;;;26.84;69.49;100623.38;4967892;28;20654;-78
2023/09/09 10:01:13;;;;;;;9.63;6.72;;;;;;;26.99;67.93;100616.31;4966534;28;20252;-78
2023/09/09 10:03:51;;;;;;;9.55;6.55;;;;;;;27.04;65.71;100616.94;4967108;28;20610;-79
2023/09/09 10:06:26;;;;;;;10.93;5.95;;;;;;;27.02;64.16;100616.16;4966387;28;20285;-79
2023/09/09 10:09:05;;;;;;;9.55;6.55;;;;;;;27.09;65.38;100620.31;4967995;28;20287;-78
2023/09/09 10:11:40;;;;;;;10.10;6.50;;;;;;;27.23;64.14;100628.66;4981358;28;20252;-78
2023/09/09 10:14:14;;;;;;;11.07;6.57;;;;;;;27.26;63.73;100622.19;4964997;28;20296;-78
2023/09/09 10:16:46;;;;;;;12.48;6.72;;;;;;;27.31;63.35;100612.81;4969456;28;20749;-78
2023/09/09 10:19:13;;;;;;;8.57;6.40;;;;;;;27.45;64.49;100614.81;4970983;28;20193;-78
2023/09/09 10:21:41;;;;;;;8.75;6.50;;;;;;;27.51;62.44;100617.19;4967878;28;20225;-78
2023/09/09 10:24:09;;;;;;;9.55;6.30;;;;;;;27.70;61.05;100614.41;4967443;28;20207;-79
2023/09/09 10:26:37;;;;;;;10.60;6.53;;;;;;;27.84;61.32;100616.38;4963163;28;20725;-78
2023/09/09 10:29:05;;;;;;;8.60;7.00;;;;;;;27.92;61.73;100612.28;4979834;28;20229;-77
2023/09/09 10:31:33;;;;;;;13.48;6.50;;;;;;;28.07;59.98;100610.56;4964592;28;20311;-77
2023/09/09 10:34:01;;;;;;;9.07;6.55;;;;;;;28.17;60.58;100608.19;4965907;28;20221;-77
2023/09/09 10:36:36;;;;;;;8.55;5.97;;;;;;;28.25;58.68;100611.41;4966601;28;20233;-78
2023/09/09 10:39:19;;;;;;;8.60;6.65;;;;;;;28.34;57.49;100606.31;4962743;28;20205;-77
2023/09/09 10:41:47;;;;;;;10.80;7.13;;;;;;;28.40;58.62;100602.34;4962895;28;20232;-78
2023/09/09 10:44:15;;;;;;;10.98;6.18;;;;;;;28.49;58.70;100603.69;4962828;28;20201;-78
2023/09/09 10:46:42;;;;;;;7.57;6.25;;;;;;;28.62;56.85;100602.00;4966548;28;20252;-76
2023/09/09 10:49:08;;;;;;;7.95;6.38;;;;;;;28.82;56.98;100606.28;4967843;28;20197;-76
2023/09/09 10:51:49;;;;;;;9.48;6.90;;;;;;;28.92;57.77;100602.09;4957538;28;20300;-77
2023/09/09 10:54:21;;;;;;;8.82;7.15;;;;;;;28.95;57.49;100593.75;4964367;28;20998;-77
2023/09/09 10:56:54;;;;;;;11.68;7.50;;;;;;;29.00;57.44;100592.50;4959130;28;20226;-75
2023/09/09 10:59:23;;;;;;;9.68;7.10;;;;;;;29.18;56.81;100598.66;4963301;28;20452;-77
2023/09/09 11:02:10;;;;;;;10.02;7.68;;;;;;;29.20;56.45;100602.19;4976182;28;20222;-78
2023/09/09 11:04:39;;;;;;;11.80;7.15;;;;;;;29.27;56.87;100594.53;4966601;28;20289;-76
2023/09/09 11:07:16;;;;;;;11.90;7.47;;;;;;;29.18;56.11;100598.66;4965416;28;20562;-77
2023/09/09 11:09:52;;;;;;;7.82;6.88;;;;;;;29.26;55.47;100598.22;4982960;28;20292;-78
2023/09/09 11:12:26;;;;;;;8.70;7.20;;;;;;;29.33;54.19;100596.88;4968661;28;20236;-78